sensor_id;sensor_type;location;lat;lon;timestamp;pressure;altitude;pressure_sealevel;temperature;humidity
63554;BME280;49699;48.072;7.800;2022-11-20T00:01:31;99092.69;;;6.71;83.46
63554;BME280;49699;48.072;7.800;2022-11-20T00:03:57;99092.75;;;6.69;83.69
63554;BME280;49699;48.072;7.800;2022-11-20T00:06:23;99104.78;;;6.70;83.39
63554;BME280;49699;48.072;7.800;2022-11-20T00:08:49;99100.44;;;6.71;83.35
63554;BME280;49699;48.072;7.800;2022-11-20T00:11:15;99095.34;;;6.69;83.38
63554;BME280;49699;48.072;7.800;2022-11-20T00:13:41;99101.34;;;6.70;83.35
63554;BME280;49699;48.072;7.800;2022-11-20T00:16:07;99097.91;;;6.69;83.28
63554;BME280;49699;48.072;7.800;2022-11-20T00:18:34;99097.91;;;6.69;82.94
63554;BME280;49699;48.072;7.800;2022-11-20T00:21:06;99107.41;;;6.69;83.29
63554;BME280;49699;48.072;7.800;2022-11-20T00:23:32;99105.75;;;6.68;83.15
63554;BME280;49699;48.072;7.800;2022-11-20T00:26:01;99108.34;;;6.68;82.92
63554;BME280;49699;48.072;7.800;2022-11-20T00:28:27;99104.06;;;6.67;82.98
63554;BME280;49699;48.072;7.800;2022-11-20T00:30:52;99109.16;;;6.68;83.00
63554;BME280;49699;48.072;7.800;2022-11-20T00:33:17;99101.47;;;6.67;82.95
63554;BME280;49699;48.072;7.800;2022-11-20T00:35:43;99111.91;;;6.65;83.02
63554;BME280;49699;48.072;7.800;2022-11-20T00:38:08;99104.91;;;6.67;82.96
63554;BME280;49699;48.072;7.800;2022-11-20T00:40:33;99104.97;;;6.66;82.91
63554;BME280;49699;48.072;7.800;2022-11-20T00:42:58;99112.72;;;6.66;82.98
63554;BME280;49699;48.072;7.800;2022-11-20T00:45:24;99109.31;;;6.65;82.77
63554;BME280;49699;48.072;7.800;2022-11-20T00:47:49;99101.63;;;6.63;82.91
63554;BME280;49699;48.072;7.800;2022-11-20T00:50:14;99108.53;;;6.63;82.97
63554;BME280;49699;48.072;7.800;2022-11-20T00:52:40;99108.63;;;6.61;83.06
63554;BME280;49699;48.072;7.800;2022-11-20T00:55:05;99103.53;;;6.60;82.97
63554;BME280;49699;48.072;7.800;2022-11-20T00:57:31;99104.44;;;6.59;83.05
63554;BME280;49699;48.072;7.800;2022-11-20T00:59:56;99107.94;;;6.58;83.06
63554;BME280;49699;48.072;7.800;2022-11-20T01:02:21;99106.25;;;6.57;83.26
63554;BME280;49699;48.072;7.800;2022-11-20T01:04:47;99109.69;;;6.57;83.11
63554;BME280;49699;48.072;7.800;2022-11-20T01:07:12;99107.16;;;6.56;83.31
63554;BME280;49699;48.072;7.800;2022-11-20T01:09:37;99103.75;;;6.55;82.98
63554;BME280;49699;48.072;7.800;2022-11-20T01:12:03;99112.41;;;6.54;83.31
63554;BME280;49699;48.072;7.800;2022-11-20T01:14:29;99104.78;;;6.51;83.28
63554;BME280;49699;48.072;7.800;2022-11-20T01:16:54;99104.72;;;6.53;83.37
63554;BME280;49699;48.072;7.800;2022-11-20T01:19:20;99108.06;;;6.55;83.26
63554;BME280;49699;48.072;7.800;2022-11-20T01:21:47;99102.91;;;6.55;83.25
63554;BME280;49699;48.072;7.800;2022-11-20T01:24:14;99108.97;;;6.54;83.30
63554;BME280;49699;48.072;7.800;2022-11-20T01:26:40;99110.72;;;6.53;83.07
63554;BME280;49699;48.072;7.800;2022-11-20T01:29:06;99114.22;;;6.52;83.34
63554;BME280;49699;48.072;7.800;2022-11-20T01:31:33;99113.44;;;6.50;83.28
63554;BME280;49699;48.072;7.800;2022-11-20T01:34:00;99113.44;;;6.50;83.53
63554;BME280;49699;48.072;7.800;2022-11-20T01:36:26;99116.94;;;6.49;83.61
63554;BME280;49699;48.072;7.800;2022-11-20T01:38:52;99119.59;;;6.48;84.02
63554;BME280;49699;48.072;7.800;2022-11-20T01:41:18;99116.16;;;6.47;83.72
63554;BME280;49699;48.072;7.800;2022-11-20T01:44:02;99115.34;;;6.47;83.71
63554;BME280;49699;48.072;7.800;2022-11-20T01:46:28;99120.44;;;6.48;83.71
63554;BME280;49699;48.072;7.800;2022-11-20T01:48:56;99128.13;;;6.50;83.70
63554;BME280;49699;48.072;7.800;2022-11-20T01:51:25;99113.53;;;6.49;83.69
63554;BME280;49699;48.072;7.800;2022-11-20T01:53:54;99110.09;;;6.48;83.69
63554;BME280;49699;48.072;7.800;2022-11-20T01:56:20;99118.69;;;6.49;83.79
63554;BME280;49699;48.072;7.800;2022-11-20T01:58:51;99114.34;;;6.49;83.78
63554;BME280;49699;48.072;7.800;2022-11-20T02:01:17;99117.84;;;6.48;83.79
63554;BME280;49699;48.072;7.800;2022-11-20T02:03:42;99121.34;;;6.47;83.98
63554;BME280;49699;48.072;7.800;2022-11-20T02:06:13;99125.75;;;6.45;83.89
63554;BME280;49699;48.072;7.800;2022-11-20T02:08:40;99124.00;;;6.46;84.06
63554;BME280;49699;48.072;7.800;2022-11-20T02:11:05;99129.16;;;6.46;83.96
63554;BME280;49699;48.072;7.800;2022-11-20T02:13:31;99122.25;;;6.46;84.02
63554;BME280;49699;48.072;7.800;2022-11-20T02:16:31;99119.66;;;6.46;83.97
63554;BME280;49699;48.072;7.800;2022-11-20T02:18:54;99118.69;;;6.49;83.99
63554;BME280;49699;48.072;7.800;2022-11-20T02:24:21;99101.44;;;6.49;84.03
63554;BME280;49699;48.072;7.800;2022-11-20T02:26:59;99094.59;;;6.48;83.94
63554;BME280;49699;48.072;7.800;2022-11-20T02:29:26;99114.44;;;6.48;84.04
63554;BME280;49699;48.072;7.800;2022-11-20T02:31:52;99106.75;;;6.46;84.02
63554;BME280;49699;48.072;7.800;2022-11-20T02:34:20;99117.25;;;6.43;84.21
63554;BME280;49699;48.072;7.800;2022-11-20T02:36:45;99120.75;;;6.42;84.14
63554;BME280;49699;48.072;7.800;2022-11-20T02:39:11;99124.22;;;6.41;84.28
63554;BME280;49699;48.072;7.800;2022-11-20T02:41:38;99112.16;;;6.42;84.31
63554;BME280;49699;48.072;7.800;2022-11-20T02:44:04;99114.72;;;6.42;84.38
63554;BME280;49699;48.072;7.800;2022-11-20T02:46:31;99110.41;;;6.42;84.28
63554;BME280;49699;48.072;7.800;2022-11-20T02:48:56;99107.81;;;6.42;84.08
63554;BME280;49699;48.072;7.800;2022-11-20T02:51:22;99094.94;;;6.41;84.24
63554;BME280;49699;48.072;7.800;2022-11-20T02:53:47;99089.78;;;6.41;84.20
63554;BME280;49699;48.072;7.800;2022-11-20T02:56:12;99107.88;;;6.41;84.12
63554;BME280;49699;48.072;7.800;2022-11-20T02:58:38;99107.88;;;6.41;84.09
63554;BME280;49699;48.072;7.800;2022-11-20T03:01:04;99113.13;;;6.39;83.97
63554;BME280;49699;48.072;7.800;2022-11-20T03:03:29;99112.34;;;6.37;84.11
63554;BME280;49699;48.072;7.800;2022-11-20T03:05:54;99105.56;;;6.35;83.89
63554;BME280;49699;48.072;7.800;2022-11-20T03:08:20;99106.47;;;6.34;84.19
63554;BME280;49699;48.072;7.800;2022-11-20T03:10:45;99101.44;;;6.31;84.28
63554;BME280;49699;48.072;7.800;2022-11-20T03:13:10;99099.75;;;6.30;84.43
63554;BME280;49699;48.072;7.800;2022-11-20T03:15:36;99101.56;;;6.27;84.41
63554;BME280;49699;48.072;7.800;2022-11-20T03:18:02;99111.16;;;6.25;84.14
63554;BME280;49699;48.072;7.800;2022-11-20T03:20:27;99103.41;;;6.25;84.18
63554;BME280;49699;48.072;7.800;2022-11-20T03:22:53;99101.72;;;6.24;84.33
63554;BME280;49699;48.072;7.800;2022-11-20T03:25:19;99104.25;;;6.26;84.58
63554;BME280;49699;48.072;7.800;2022-11-20T03:27:44;99100.00;;;6.25;84.35
63554;BME280;49699;48.072;7.800;2022-11-20T03:30:09;99099.16;;;6.24;84.28
63554;BME280;49699;48.072;7.800;2022-11-20T03:32:35;99099.16;;;6.24;84.04
63554;BME280;49699;48.072;7.800;2022-11-20T03:35:00;99106.00;;;6.25;84.12
63554;BME280;49699;48.072;7.800;2022-11-20T03:37:25;99101.66;;;6.26;84.24
63554;BME280;49699;48.072;7.800;2022-11-20T03:39:51;99105.91;;;6.27;84.11
63554;BME280;49699;48.072;7.800;2022-11-20T03:42:16;99098.97;;;6.27;84.33
63554;BME280;49699;48.072;7.800;2022-11-20T03:45:00;99100.72;;;6.27;84.15
63554;BME280;49699;48.072;7.800;2022-11-20T03:47:25;99103.31;;;6.27;84.39
63554;BME280;49699;48.072;7.800;2022-11-20T03:49:51;99109.31;;;6.27;84.06
63554;BME280;49699;48.072;7.800;2022-11-20T03:52:16;99109.31;;;6.27;84.24
63554;BME280;49699;48.072;7.800;2022-11-20T03:54:41;99111.84;;;6.29;83.87
63554;BME280;49699;48.072;7.800;2022-11-20T03:57:06;99115.31;;;6.28;84.25
63554;BME280;49699;48.072;7.800;2022-11-20T03:59:32;99108.34;;;6.30;84.24
63554;BME280;49699;48.072;7.800;2022-11-20T04:01:57;99102.28;;;6.31;83.85
63554;BME280;49699;48.072;7.800;2022-11-20T04:04:22;99105.69;;;6.32;84.17
63554;BME280;49699;48.072;7.800;2022-11-20T04:06:47;99109.13;;;6.32;84.00
63554;BME280;49699;48.072;7.800;2022-11-20T04:09:13;99106.47;;;6.34;83.91
63554;BME280;49699;48.072;7.800;2022-11-20T04:11:39;99109.91;;;6.34;84.07
63554;BME280;49699;48.072;7.800;2022-11-20T04:14:05;99113.31;;;6.35;83.99
63554;BME280;49699;48.072;7.800;2022-11-20T04:16:35;99119.31;;;6.35;84.12
63554;BME280;49699;48.072;7.800;2022-11-20T04:19:01;99120.16;;;6.36;83.81
63554;BME280;49699;48.072;7.800;2022-11-20T04:21:27;99119.19;;;6.38;84.00
63554;BME280;49699;48.072;7.800;2022-11-20T04:23:53;99122.63;;;6.39;83.86
63554;BME280;49699;48.072;7.800;2022-11-20T04:26:18;99120.09;;;6.37;83.93
63554;BME280;49699;48.072;7.800;2022-11-20T04:28:44;99111.50;;;6.37;84.01
63554;BME280;49699;48.072;7.800;2022-11-20T04:31:10;99115.06;;;6.34;84.32
63554;BME280;49699;48.072;7.800;2022-11-20T04:33:36;99116.88;;;6.32;84.44
63554;BME280;49699;48.072;7.800;2022-11-20T04:36:06;99108.34;;;6.30;84.51
63554;BME280;49699;48.072;7.800;2022-11-20T04:38:31;99109.19;;;6.31;84.48
63554;BME280;49699;48.072;7.800;2022-11-20T04:41:00;99105.00;;;6.28;84.65
63554;BME280;49699;48.072;7.800;2022-11-20T04:43:26;99106.75;;;6.27;84.75
63554;BME280;49699;48.072;7.800;2022-11-20T04:45:55;99115.31;;;6.28;84.83
63554;BME280;49699;48.072;7.800;2022-11-20T04:48:21;99107.56;;;6.28;84.66
63554;BME280;49699;48.072;7.800;2022-11-20T04:50:47;99109.31;;;6.27;84.58
63554;BME280;49699;48.072;7.800;2022-11-20T04:53:12;99103.31;;;6.27;84.58
63554;BME280;49699;48.072;7.800;2022-11-20T04:55:37;99108.59;;;6.25;84.19
63554;BME280;49699;48.072;7.800;2022-11-20T04:58:03;99115.50;;;6.25;84.17
63554;BME280;49699;48.072;7.800;2022-11-20T05:00:28;99112.00;;;6.26;84.37
63554;BME280;49699;48.072;7.800;2022-11-20T05:02:53;99122.34;;;6.26;84.25
63554;BME280;49699;48.072;7.800;2022-11-20T05:05:19;99117.19;;;6.26;84.19
63554;BME280;49699;48.072;7.800;2022-11-20T05:07:44;99116.22;;;6.27;84.27
63554;BME280;49699;48.072;7.800;2022-11-20T05:10:09;99117.06;;;6.27;83.98
63554;BME280;49699;48.072;7.800;2022-11-20T05:12:35;99110.16;;;6.28;84.04
63554;BME280;49699;48.072;7.800;2022-11-20T05:15:00;99123.00;;;6.30;83.92
63554;BME280;49699;48.072;7.800;2022-11-20T05:17:25;99117.84;;;6.30;83.75
63554;BME280;49699;48.072;7.800;2022-11-20T05:19:50;99114.34;;;6.31;83.37
63554;BME280;49699;48.072;7.800;2022-11-20T05:22:16;99115.19;;;6.31;83.34
63554;BME280;49699;48.072;7.800;2022-11-20T05:24:41;99109.19;;;6.31;83.50
63554;BME280;49699;48.072;7.800;2022-11-20T05:27:06;99117.78;;;6.31;83.59
63554;BME280;49699;48.072;7.800;2022-11-20T05:29:32;99116.94;;;6.31;83.17
63554;BME280;49699;48.072;7.800;2022-11-20T05:31:57;99117.00;;;6.29;83.07
63554;BME280;49699;48.072;7.800;2022-11-20T05:34:22;99117.84;;;6.30;83.15
63554;BME280;49699;48.072;7.800;2022-11-20T05:36:47;99122.19;;;6.29;82.93
63554;BME280;49699;48.072;7.800;2022-11-20T05:39:13;99122.09;;;6.31;83.04
63554;BME280;49699;48.072;7.800;2022-11-20T05:41:38;99118.56;;;6.33;82.93
63554;BME280;49699;48.072;7.800;2022-11-20T05:44:03;99112.47;;;6.34;83.28
63554;BME280;49699;48.072;7.800;2022-11-20T05:46:29;99112.47;;;6.34;83.18
63554;BME280;49699;48.072;7.800;2022-11-20T05:48:54;99110.72;;;6.35;83.04
63554;BME280;49699;48.072;7.800;2022-11-20T05:51:20;99109.91;;;6.34;83.05
63554;BME280;49699;48.072;7.800;2022-11-20T05:53:45;99107.25;;;6.36;83.00
63554;BME280;49699;48.072;7.800;2022-11-20T05:56:12;99102.91;;;6.36;83.08
63554;BME280;49699;48.072;7.800;2022-11-20T05:58:38;99108.06;;;6.36;83.09
63554;BME280;49699;48.072;7.800;2022-11-20T06:01:07;99118.34;;;6.38;82.99
63554;BME280;49699;48.072;7.800;2022-11-20T06:03:33;99108.91;;;6.37;82.80
63554;BME280;49699;48.072;7.800;2022-11-20T06:06:00;99114.84;;;6.39;82.77
63554;BME280;49699;48.072;7.800;2022-11-20T06:08:26;99109.63;;;6.40;82.80
63554;BME280;49699;48.072;7.800;2022-11-20T06:10:51;99119.91;;;6.42;82.85
63554;BME280;49699;48.072;7.800;2022-11-20T06:13:16;99112.97;;;6.42;82.97
63554;BME280;49699;48.072;7.800;2022-11-20T06:15:42;99119.06;;;6.41;82.78
63554;BME280;49699;48.072;7.800;2022-11-20T06:18:07;99117.31;;;6.42;82.95
63554;BME280;49699;48.072;7.800;2022-11-20T06:20:33;99125.06;;;6.42;82.74
63554;BME280;49699;48.072;7.800;2022-11-20T06:22:58;99124.16;;;6.43;82.83
63554;BME280;49699;48.072;7.800;2022-11-20T06:25:23;99118.16;;;6.42;82.78
63554;BME280;49699;48.072;7.800;2022-11-20T06:27:48;99119.84;;;6.43;82.67
63554;BME280;49699;48.072;7.800;2022-11-20T06:30:14;99117.31;;;6.42;83.00
63554;BME280;49699;48.072;7.800;2022-11-20T06:32:39;99115.56;;;6.42;83.01
63554;BME280;49699;48.072;7.800;2022-11-20T06:35:05;99112.16;;;6.42;83.36
63554;BME280;49699;48.072;7.800;2022-11-20T06:37:30;99105.38;;;6.39;83.24
63554;BME280;49699;48.072;7.800;2022-11-20T06:39:55;99114.03;;;6.38;83.31
63554;BME280;49699;48.072;7.800;2022-11-20T06:42:21;99114.09;;;6.37;83.23
63554;BME280;49699;48.072;7.800;2022-11-20T06:44:46;99114.09;;;6.37;83.29
63554;BME280;49699;48.072;7.800;2022-11-20T06:47:11;99112.41;;;6.36;83.49
63554;BME280;49699;48.072;7.800;2022-11-20T06:49:36;99112.41;;;6.36;83.43
63554;BME280;49699;48.072;7.800;2022-11-20T06:52:03;99122.75;;;6.36;83.63
63554;BME280;49699;48.072;7.800;2022-11-20T06:54:29;99122.75;;;6.36;83.38
63554;BME280;49699;48.072;7.800;2022-11-20T06:56:54;99128.69;;;6.38;83.34
63554;BME280;49699;48.072;7.800;2022-11-20T06:59:19;99132.94;;;6.39;83.40
63554;BME280;49699;48.072;7.800;2022-11-20T07:01:45;99136.38;;;6.39;83.28
63554;BME280;49699;48.072;7.800;2022-11-20T07:04:10;99138.91;;;6.41;83.33
63554;BME280;49699;48.072;7.800;2022-11-20T07:06:35;99137.09;;;6.43;83.28
63554;BME280;49699;48.072;7.800;2022-11-20T07:09:01;99137.84;;;6.45;83.05
63554;BME280;49699;48.072;7.800;2022-11-20T07:11:26;99144.59;;;6.47;82.91
63554;BME280;49699;48.072;7.800;2022-11-20T07:13:52;99139.38;;;6.49;82.84
63554;BME280;49699;48.072;7.800;2022-11-20T07:16:17;99139.38;;;6.49;82.83
63554;BME280;49699;48.072;7.800;2022-11-20T07:18:42;99147.91;;;6.51;82.72
63554;BME280;49699;48.072;7.800;2022-11-20T07:21:08;99147.91;;;6.51;82.73
63554;BME280;49699;48.072;7.800;2022-11-20T07:23:34;99150.41;;;6.52;82.65
63554;BME280;49699;48.072;7.800;2022-11-20T07:26:06;99153.00;;;6.52;82.54
63554;BME280;49699;48.072;7.800;2022-11-20T07:28:32;99155.59;;;6.52;82.48
63554;BME280;49699;48.072;7.800;2022-11-20T07:30:57;99164.19;;;6.53;82.52
63554;BME280;49699;48.072;7.800;2022-11-20T07:33:23;99167.53;;;6.55;82.53
63554;BME280;49699;48.072;7.800;2022-11-20T07:35:48;99156.28;;;6.56;82.27
63554;BME280;49699;48.072;7.800;2022-11-20T07:38:13;99161.31;;;6.59;82.33
63554;BME280;49699;48.072;7.800;2022-11-20T07:40:39;99161.31;;;6.59;82.32
63554;BME280;49699;48.072;7.800;2022-11-20T07:43:04;99156.16;;;6.59;82.25
63554;BME280;49699;48.072;7.800;2022-11-20T07:45:29;99159.66;;;6.58;82.32
63554;BME280;49699;48.072;7.800;2022-11-20T07:47:55;99164.81;;;6.58;82.45
63554;BME280;49699;48.072;7.800;2022-11-20T07:50:20;99161.41;;;6.57;82.63
63554;BME280;49699;48.072;7.800;2022-11-20T07:52:46;99164.88;;;6.56;82.45
63554;BME280;49699;48.072;7.800;2022-11-20T07:55:11;99161.47;;;6.56;82.35
63554;BME280;49699;48.072;7.800;2022-11-20T07:57:36;99157.19;;;6.55;82.56
63554;BME280;49699;48.072;7.800;2022-11-20T08:00:05;99154.63;;;6.55;82.53
63554;BME280;49699;48.072;7.800;2022-11-20T08:02:37;99168.38;;;6.55;82.74
63554;BME280;49699;48.072;7.800;2022-11-20T08:05:04;99162.38;;;6.55;82.74
63554;BME280;49699;48.072;7.800;2022-11-20T08:07:29;99165.88;;;6.54;82.58
63554;BME280;49699;48.072;7.800;2022-11-20T08:09:54;99168.38;;;6.55;82.71
63554;BME280;49699;48.072;7.800;2022-11-20T08:12:20;99170.97;;;6.55;82.64
63554;BME280;49699;48.072;7.800;2022-11-20T08:15:05;99176.91;;;6.57;82.50
63554;BME280;49699;48.072;7.800;2022-11-20T08:17:30;99174.31;;;6.57;82.51
63554;BME280;49699;48.072;7.800;2022-11-20T08:19:55;99177.69;;;6.59;82.49
63554;BME280;49699;48.072;7.800;2022-11-20T08:22:21;99183.69;;;6.60;82.41
63554;BME280;49699;48.072;7.800;2022-11-20T08:24:46;99190.47;;;6.63;82.33
63554;BME280;49699;48.072;7.800;2022-11-20T08:27:12;99193.06;;;6.63;82.39
63554;BME280;49699;48.072;7.800;2022-11-20T08:29:37;99198.97;;;6.65;82.33
63554;BME280;49699;48.072;7.800;2022-11-20T08:32:02;99198.06;;;6.66;82.32
63554;BME280;49699;48.072;7.800;2022-11-20T08:34:28;99198.91;;;6.66;82.14
63554;BME280;49699;48.072;7.800;2022-11-20T08:36:53;99204.91;;;6.67;81.96
63554;BME280;49699;48.072;7.800;2022-11-20T08:39:18;99200.53;;;6.69;81.80
63554;BME280;49699;48.072;7.800;2022-11-20T08:41:44;99204.59;;;6.74;81.91
63554;BME280;49699;48.072;7.800;2022-11-20T08:44:09;99201.88;;;6.77;81.72
63554;BME280;49699;48.072;7.800;2022-11-20T08:46:36;99212.88;;;6.81;81.81
63554;BME280;49699;48.072;7.800;2022-11-20T08:49:05;99212.81;;;6.82;81.37
63554;BME280;49699;48.072;7.800;2022-11-20T08:51:31;99217.94;;;6.84;81.30
63554;BME280;49699;48.072;7.800;2022-11-20T08:53:56;99214.44;;;6.85;81.33
63554;BME280;49699;48.072;7.800;2022-11-20T08:56:21;99222.97;;;6.87;81.09
63554;BME280;49699;48.072;7.800;2022-11-20T08:58:47;99228.91;;;6.89;81.17
63554;BME280;49699;48.072;7.800;2022-11-20T09:01:12;99226.25;;;6.90;80.96
63554;BME280;49699;48.072;7.800;2022-11-20T09:03:37;99230.53;;;6.91;80.83
63554;BME280;49699;48.072;7.800;2022-11-20T09:06:04;99232.19;;;6.92;80.89
63554;BME280;49699;48.072;7.800;2022-11-20T09:08:30;99231.28;;;6.93;80.59
63554;BME280;49699;48.072;7.800;2022-11-20T09:10:56;99231.38;;;6.92;80.44
63554;BME280;49699;48.072;7.800;2022-11-20T09:13:22;99230.53;;;6.91;80.57
63554;BME280;49699;48.072;7.800;2022-11-20T09:15:52;99230.59;;;6.90;80.34
63554;BME280;49699;48.072;7.800;2022-11-20T09:18:17;99229.63;;;6.92;80.68
63554;BME280;49699;48.072;7.800;2022-11-20T09:20:43;99239.00;;;6.95;80.37
63554;BME280;49699;48.072;7.800;2022-11-20T09:23:08;99239.69;;;6.99;80.51
63554;BME280;49699;48.072;7.800;2022-11-20T09:25:33;99243.94;;;7.00;80.02
63554;BME280;49699;48.072;7.800;2022-11-20T09:27:59;99242.03;;;7.03;80.24
63554;BME280;49699;48.072;7.800;2022-11-20T09:30:25;99242.59;;;7.10;80.05
63554;BME280;49699;48.072;7.800;2022-11-20T09:32:50;99239.03;;;7.12;79.85
63554;BME280;49699;48.072;7.800;2022-11-20T09:35:16;99237.16;;;7.16;79.87
63554;BME280;49699;48.072;7.800;2022-11-20T09:37:43;99243.06;;;7.18;79.93
63554;BME280;49699;48.072;7.800;2022-11-20T09:40:16;99243.63;;;7.24;79.66
63554;BME280;49699;48.072;7.800;2022-11-20T09:43:30;99240.84;;;7.29;79.36
63554;BME280;49699;48.072;7.800;2022-11-20T09:45:37;99239.69;;;7.35;79.45
63554;BME280;49699;48.072;7.800;2022-11-20T09:48:12;99237.66;;;7.41;78.87
63554;BME280;49699;48.072;7.800;2022-11-20T09:51:02;99245.97;;;7.48;79.04
63554;BME280;49699;48.072;7.800;2022-11-20T09:56:12;99244.81;;;7.53;78.46
63554;BME280;49699;48.072;7.800;2022-11-20T09:58:39;99248.13;;;7.57;78.54
63554;BME280;49699;48.072;7.800;2022-11-20T10:01:26;99255.81;;;7.58;78.32
63554;BME280;49699;48.072;7.800;2022-11-20T10:03:56;99260.16;;;7.58;78.31
63554;BME280;49699;48.072;7.800;2022-11-20T10:06:33;99254.06;;;7.59;78.23
63554;BME280;49699;48.072;7.800;2022-11-20T10:11:59;99248.75;;;7.62;78.46
63554;BME280;49699;48.072;7.800;2022-11-20T10:14:35;99249.44;;;7.65;78.26
63554;BME280;49699;48.072;7.800;2022-11-20T10:22:51;99247.31;;;7.91;77.67
63554;BME280;49699;48.072;7.800;2022-11-20T10:25:22;99242.81;;;7.94;77.70
63554;BME280;49699;48.072;7.800;2022-11-20T10:27:54;99235.72;;;7.98;77.57
63554;BME280;49699;48.072;7.800;2022-11-20T10:30:22;99234.75;;;8.00;77.18
63554;BME280;49699;48.072;7.800;2022-11-20T10:32:51;99236.41;;;8.01;77.35
63554;BME280;49699;48.072;7.800;2022-11-20T10:35:37;99226.75;;;8.05;77.26
63554;BME280;49699;48.072;7.800;2022-11-20T10:38:28;99233.34;;;8.11;77.14
63554;BME280;49699;48.072;7.800;2022-11-20T10:40:59;99222.59;;;8.18;77.01
63554;BME280;49699;48.072;7.800;2022-11-20T10:43:44;99225.88;;;8.22;76.74
63554;BME280;49699;48.072;7.800;2022-11-20T10:46:17;99222.13;;;8.27;76.77
63554;BME280;49699;48.072;7.800;2022-11-20T10:48:43;99219.25;;;8.33;76.16
63554;BME280;49699;48.072;7.800;2022-11-20T10:56:12;99209.31;;;8.42;76.17
63554;BME280;49699;48.072;7.800;2022-11-20T10:58:52;99196.16;;;8.45;76.23
63554;BME280;49699;48.072;7.800;2022-11-20T11:01:21;99186.25;;;8.53;75.58
63554;BME280;49699;48.072;7.800;2022-11-20T11:03:48;99191.44;;;8.68;75.55
63554;BME280;49699;48.072;7.800;2022-11-20T11:08:45;99183.09;;;9.11;73.63
63554;BME280;49699;48.072;7.800;2022-11-20T11:11:17;99180.63;;;9.23;73.46
63554;BME280;49699;48.072;7.800;2022-11-20T11:13:43;99176.38;;;9.22;73.43
63554;BME280;49699;48.072;7.800;2022-11-20T11:16:17;99164.63;;;9.15;73.24
63554;BME280;49699;48.072;7.800;2022-11-20T11:18:44;99154.25;;;9.15;73.04
63554;BME280;49699;48.072;7.800;2022-11-20T11:21:09;99151.16;;;9.24;72.60
63554;BME280;49699;48.072;7.800;2022-11-20T11:23:36;99139.22;;;9.36;72.44
63554;BME280;49699;48.072;7.800;2022-11-20T11:26:02;99144.75;;;9.46;72.06
63554;BME280;49699;48.072;7.800;2022-11-20T11:28:28;99140.84;;;9.53;71.61
63554;BME280;49699;48.072;7.800;2022-11-20T11:30:54;99128.16;;;9.62;71.07
63554;BME280;49699;48.072;7.800;2022-11-20T11:35:47;99116.59;;;9.82;70.16
63554;BME280;49699;48.072;7.800;2022-11-20T11:38:17;99114.63;;;9.86;69.77
63554;BME280;49699;48.072;7.800;2022-11-20T11:40:45;99113.63;;;9.88;69.75
63554;BME280;49699;48.072;7.800;2022-11-20T11:43:18;99109.91;;;9.92;69.51
63554;BME280;49699;48.072;7.800;2022-11-20T11:46:15;99107.78;;;9.99;68.81
63554;BME280;49699;48.072;7.800;2022-11-20T11:49:33;99103.03;;;10.05;68.60
63554;BME280;49699;48.072;7.800;2022-11-20T11:54:19;99085.81;;;10.19;67.06
63554;BME280;49699;48.072;7.800;2022-11-20T11:56:46;99084.38;;;10.13;66.85
63554;BME280;49699;48.072;7.800;2022-11-20T11:59:14;99091.34;;;10.13;66.80
63554;BME280;49699;48.072;7.800;2022-11-20T12:01:47;99085.59;;;10.22;66.47
63554;BME280;49699;48.072;7.800;2022-11-20T12:07:01;99076.03;;;10.22;65.91
63554;BME280;49699;48.072;7.800;2022-11-20T12:09:33;99065.53;;;10.24;65.39
63554;BME280;49699;48.072;7.800;2022-11-20T12:12:05;99070.97;;;10.21;65.41
63554;BME280;49699;48.072;7.800;2022-11-20T12:14:37;99076.41;;;10.16;65.51
63554;BME280;49699;48.072;7.800;2022-11-20T12:17:03;99071.38;;;10.13;65.35
63554;BME280;49699;48.072;7.800;2022-11-20T12:19:33;99066.28;;;10.12;64.86
63554;BME280;49699;48.072;7.800;2022-11-20T12:32:14;99076.59;;;10.13;63.41
63554;BME280;49699;48.072;7.800;2022-11-20T12:34:51;99070.84;;;9.94;63.60
63554;BME280;49699;48.072;7.800;2022-11-20T12:39:48;99073.69;;;9.75;64.29
63554;BME280;49699;48.072;7.800;2022-11-20T12:53:10;99065.53;;;9.67;63.96
63554;BME280;49699;48.072;7.800;2022-11-20T12:55:47;99062.38;;;9.76;63.35
63554;BME280;49699;48.072;7.800;2022-11-20T13:01:09;99070.38;;;10.01;61.65
63554;BME280;49699;48.072;7.800;2022-11-20T13:03:34;99074.25;;;10.08;61.39
63554;BME280;49699;48.072;7.800;2022-11-20T13:08:33;99059.41;;;9.96;61.16
63554;BME280;49699;48.072;7.800;2022-11-20T13:16:26;99045.28;;;9.86;61.35
63554;BME280;49699;48.072;7.800;2022-11-20T13:18:57;99034.53;;;9.92;61.36
63554;BME280;49699;48.072;7.800;2022-11-20T13:21:36;99045.66;;;9.94;61.40
63554;BME280;49699;48.072;7.800;2022-11-20T13:24:06;99032.94;;;9.90;61.79
63554;BME280;49699;48.072;7.800;2022-11-20T13:26:31;99034.91;;;9.86;61.78
63554;BME280;49699;48.072;7.800;2022-11-20T13:29:30;99029.81;;;9.85;62.47
63554;BME280;49699;48.072;7.800;2022-11-20T13:31:48;99020.44;;;9.82;62.29
63554;BME280;49699;48.072;7.800;2022-11-20T13:34:22;99030.94;;;9.81;62.31
63554;BME280;49699;48.072;7.800;2022-11-20T13:36:49;99019.03;;;9.77;62.08
63554;BME280;49699;48.072;7.800;2022-11-20T13:39:23;99030.53;;;9.72;61.87
63554;BME280;49699;48.072;7.800;2022-11-20T13:41:53;99035.06;;;9.69;61.23
63554;BME280;49699;48.072;7.800;2022-11-20T13:46:47;99033.41;;;9.54;61.07
63554;BME280;49699;48.072;7.800;2022-11-20T13:49:25;99030.63;;;9.43;60.82
63554;BME280;49699;48.072;7.800;2022-11-20T13:51:51;99025.25;;;9.31;61.30
63554;BME280;49699;48.072;7.800;2022-11-20T13:54:26;99026.50;;;9.24;61.42
63554;BME280;49699;48.072;7.800;2022-11-20T14:02:19;99019.44;;;9.12;62.12
63554;BME280;49699;48.072;7.800;2022-11-20T14:04:46;99017.78;;;9.11;62.34
63554;BME280;49699;48.072;7.800;2022-11-20T14:07:12;99015.09;;;9.13;61.96
63554;BME280;49699;48.072;7.800;2022-11-20T14:09:37;99007.94;;;9.16;62.30
63554;BME280;49699;48.072;7.800;2022-11-20T14:12:03;99005.25;;;9.18;62.59
63554;BME280;49699;48.072;7.800;2022-11-20T14:14:37;99003.41;;;9.20;62.88
63554;BME280;49699;48.072;7.800;2022-11-20T14:17:29;98997.38;;;9.19;62.77
63554;BME280;49699;48.072;7.800;2022-11-20T14:19:55;99002.81;;;9.15;63.21
63554;BME280;49699;48.072;7.800;2022-11-20T14:22:26;98995.41;;;9.09;63.42
63554;BME280;49699;48.072;7.800;2022-11-20T14:27:38;98967.56;;;8.96;63.48